Accueil
METAR-TAF:

METAR-TAF

Aéroports :

Téhéran, Iran

Aéroport international Mehrabad

latitude: 35-41N, longitude: 051-21E, altitude: 1204 m

Observation

Le bulletin a été fait il y a 39 minutes, à 04:00 UTC
Vent 4 kt de nord/nord-ouest
Température 2°C
Humidité 47%
Pression 1025 hPa
Visibilité 10 km ou plus
pas de nuages en-dessous de 1500 mètres et pas de cumulonimbus.

METAR: OIII 120400Z 33004KT CAVOK 02/M08 Q1025 A3028 NOSIG

Heure: 08:09 (04:39 UTC)

Prévision

Le bulletin a été fait il y a 5 heures et 39 minutes, à 23:00 UTC
Prévision valable du 12 à 00 UTC au 13 à 06 UTC
Vent 8 kt de est/sud-est
Visibilité: 7000 m
Temporairement
du 12 à 09 UTC au 12 à 13 UTC
Vent 17 kt de ouest/nord-ouest
Evoluant progressivement
du 13 à 03 UTC au 13 à 05 UTC
Visibilité: 5000 m
brume sèche

TAF: OIII 112300Z 1200/1306 11004MPS 7000 NSC TEMPO 1209/1213 29009MPS BECMG 1303/1305 5000 HZ

Observations et prévisions météorologiques de plus de 4000 aéroports (messages METAR et TAF).

Les stations disponibles sont représentées par des disques jaunes et rouges sur la carte.

Passer la souris dessus pour voir le nom de la station.

Cliquer dessus pour voir les observations et prévisions météorologiques.

Pour changer de carte: cliquez sur les boutons verts avec une croix noire pour zoomer, sur le bouton vert avec un tiret pour effectuer un zoom arrière, ou sur les flèches vertes pour les cartes adjacentes.


METAR-TAF: